createdAt,value
2019-04-06T00:00:06.885Z,0.00
2019-04-06T00:01:06.871Z,0.00
2019-04-06T00:02:06.869Z,0.00
2019-04-06T00:03:06.856Z,0.00
2019-04-06T00:04:06.855Z,0.00
2019-04-06T00:05:06.845Z,0.00
2019-04-06T00:06:06.862Z,0.00
2019-04-06T00:07:06.829Z,0.00
2019-04-06T00:08:06.819Z,0.00
2019-04-06T00:09:06.808Z,0.00
2019-04-06T00:10:06.799Z,0.00
2019-04-06T00:11:06.790Z,0.00
2019-04-06T00:12:06.829Z,0.00
2019-04-06T00:13:06.774Z,0.00
2019-04-06T00:14:06.778Z,0.00
2019-04-06T00:15:06.761Z,0.00
2019-04-06T00:16:06.789Z,0.00
2019-04-06T00:17:06.742Z,0.00
2019-04-06T00:18:06.732Z,0.00
2019-04-06T00:19:06.724Z,0.00
2019-04-06T00:20:06.717Z,0.00
2019-04-06T00:21:06.709Z,0.00
2019-04-06T00:22:06.701Z,0.00
2019-04-06T00:23:06.692Z,0.00
2019-04-06T00:24:06.686Z,0.00
2019-04-06T00:25:06.687Z,0.00
2019-04-06T00:26:06.676Z,0.00
2019-04-06T00:27:06.662Z,0.00
2019-04-06T00:28:06.664Z,0.00
2019-04-06T00:29:06.645Z,0.00
2019-04-06T00:30:06.642Z,0.00
2019-04-06T00:31:06.632Z,0.00
2019-04-06T00:32:06.664Z,0.00
2019-04-06T00:33:06.612Z,0.00
2019-04-06T00:34:06.614Z,0.00
2019-04-06T00:35:06.604Z,0.00
2019-04-06T00:36:06.596Z,0.00
2019-04-06T00:37:06.578Z,0.00
2019-04-06T00:38:06.572Z,0.00
2019-04-06T00:39:06.564Z,0.00
2019-04-06T00:40:06.554Z,0.00
2019-04-06T00:41:06.546Z,0.00
2019-04-06T00:42:06.542Z,0.00
2019-04-06T00:43:06.547Z,0.00
2019-04-06T00:44:06.525Z,0.00
2019-04-06T00:45:06.517Z,0.00
2019-04-06T00:46:06.513Z,0.00
2019-04-06T00:47:06.501Z,0.00
2019-04-06T00:48:06.495Z,0.00
2019-04-06T00:49:06.484Z,0.00
2019-04-06T00:50:06.473Z,0.00
2019-04-06T00:51:06.468Z,0.00
2019-04-06T00:52:06.455Z,0.00
2019-04-06T00:53:06.448Z,0.00
2019-04-06T00:54:06.443Z,0.00
2019-04-06T00:55:06.438Z,0.00
2019-04-06T00:56:06.432Z,0.00
2019-04-06T00:57:06.418Z,0.00
2019-04-06T00:58:06.409Z,0.00
2019-04-06T00:59:06.400Z,0.00
2019-04-06T01:00:06.398Z,0.00
2019-04-06T01:01:06.387Z,0.00
2019-04-06T01:02:06.376Z,0.00
2019-04-06T01:03:06.372Z,0.00
2019-04-06T01:04:06.359Z,0.00
2019-04-06T01:05:06.351Z,0.00
2019-04-06T01:06:06.344Z,0.00
2019-04-06T01:07:06.343Z,0.00
2019-04-06T01:08:06.332Z,0.00
2019-04-06T01:09:06.324Z,0.00
2019-04-06T01:10:06.309Z,0.00
2019-04-06T01:11:06.344Z,0.00
2019-04-06T01:12:06.293Z,0.00
2019-04-06T01:13:06.286Z,0.00
2019-04-06T01:14:06.281Z,0.00
2019-04-06T01:15:06.276Z,0.00
2019-04-06T01:16:06.278Z,0.00
2019-04-06T01:17:06.255Z,0.00
2019-04-06T01:18:06.264Z,0.00
2019-04-06T01:19:06.240Z,0.00
2019-04-06T01:20:06.240Z,0.00
2019-04-06T01:21:06.222Z,0.00
2019-04-06T01:22:06.230Z,0.00
2019-04-06T01:23:06.210Z,0.00
2019-04-06T01:24:06.195Z,0.00
2019-04-06T01:25:06.188Z,0.00
2019-04-06T01:26:07.480Z,0.00
2019-04-06T01:27:06.179Z,0.00
2019-04-06T01:28:06.170Z,0.00
2019-04-06T01:29:06.161Z,0.00
2019-04-06T01:30:06.148Z,0.00
2019-04-06T01:31:06.139Z,0.00
2019-04-06T01:32:06.172Z,0.00
2019-04-06T01:33:06.126Z,0.00
2019-04-06T01:34:06.116Z,0.00
2019-04-06T01:35:06.113Z,0.00
2019-04-06T01:36:06.104Z,0.00
2019-04-06T01:37:06.092Z,0.00
2019-04-06T01:38:06.149Z,0.00
2019-04-06T01:39:06.160Z,0.00
2019-04-06T01:40:06.078Z,0.00
2019-04-06T01:41:06.070Z,0.00
2019-04-06T01:42:06.058Z,0.00
2019-04-06T01:43:06.054Z,0.00
2019-04-06T01:44:06.035Z,0.00
2019-04-06T01:45:06.029Z,0.00
2019-04-06T01:46:06.020Z,0.00
2019-04-06T01:47:06.017Z,0.00
2019-04-06T01:48:06.003Z,0.00
2019-04-06T01:49:05.999Z,0.00
2019-04-06T01:50:06.008Z,0.00
2019-04-06T01:51:05.985Z,0.00
2019-04-06T01:52:05.975Z,0.00
2019-04-06T01:53:05.965Z,0.00
2019-04-06T01:54:05.961Z,0.00
2019-04-06T01:55:05.946Z,0.00
2019-04-06T01:56:05.938Z,0.00
2019-04-06T01:57:05.934Z,0.00
2019-04-06T01:58:05.923Z,0.00
2019-04-06T01:59:05.920Z,0.00
2019-04-06T02:00:05.910Z,0.00
2019-04-06T02:01:05.929Z,0.00
2019-04-06T02:02:05.894Z,0.00
2019-04-06T02:03:05.882Z,0.00
2019-04-06T02:04:06.513Z,0.00
2019-04-06T02:05:05.867Z,0.00
2019-04-06T02:06:05.856Z,0.00
2019-04-06T02:07:05.852Z,0.00
2019-04-06T02:08:05.845Z,0.00
2019-04-06T02:09:05.932Z,0.00
2019-04-06T02:10:05.828Z,0.00
2019-04-06T02:11:05.817Z,0.00
2019-04-06T02:12:05.806Z,0.00
2019-04-06T02:13:05.796Z,0.00
2019-04-06T02:14:05.786Z,0.00
2019-04-06T02:15:05.782Z,0.00
2019-04-06T02:16:05.771Z,0.00
2019-04-06T02:17:05.760Z,0.00
2019-04-06T02:18:06.052Z,0.00
2019-04-06T02:19:05.748Z,0.00
2019-04-06T02:20:05.737Z,0.00
2019-04-06T02:21:05.742Z,0.00
2019-04-06T02:22:05.835Z,0.00
2019-04-06T02:23:05.713Z,0.00
2019-04-06T02:24:05.703Z,0.00
2019-04-06T02:25:05.700Z,0.00
2019-04-06T02:26:05.714Z,0.00
2019-04-06T02:27:05.680Z,0.00
2019-04-06T02:28:05.761Z,0.00
2019-04-06T02:29:05.661Z,0.00
2019-04-06T02:30:05.716Z,0.00
2019-04-06T02:31:05.658Z,0.00
2019-04-06T02:32:05.643Z,0.00
2019-04-06T02:33:05.626Z,0.00
2019-04-06T02:34:05.637Z,0.00
2019-04-06T02:35:05.605Z,0.00
2019-04-06T02:36:05.603Z,0.00
2019-04-06T02:37:05.632Z,0.00
2019-04-06T02:38:05.664Z,0.00
2019-04-06T02:39:05.580Z,0.00
2019-04-06T02:40:07.716Z,0.00
2019-04-06T02:41:05.639Z,0.00
2019-04-06T02:42:05.548Z,0.00
2019-04-06T02:43:05.540Z,0.00
2019-04-06T02:44:05.531Z,0.00
2019-04-06T02:45:05.522Z,0.00
2019-04-06T02:46:05.523Z,0.00
2019-04-06T02:47:05.500Z,0.00
2019-04-06T02:48:05.493Z,0.00
2019-04-06T02:49:05.488Z,0.00
2019-04-06T02:50:05.482Z,0.00
2019-04-06T02:51:05.470Z,0.00
2019-04-06T02:52:05.460Z,0.00
2019-04-06T02:53:05.460Z,0.00
2019-04-06T02:54:05.495Z,0.00
2019-04-06T02:55:05.468Z,0.00
2019-04-06T02:56:05.442Z,0.00
2019-04-06T02:57:05.636Z,0.00
2019-04-06T02:58:05.405Z,0.00
2019-04-06T02:59:05.602Z,0.00
2019-04-06T03:00:05.385Z,0.00
2019-04-06T03:01:05.380Z,0.00
2019-04-06T03:02:05.373Z,0.00
2019-04-06T03:03:05.364Z,0.00
2019-04-06T03:04:05.366Z,0.00
2019-04-06T03:05:05.346Z,0.00
2019-04-06T03:06:05.333Z,0.00
2019-04-06T03:07:05.329Z,0.00
2019-04-06T03:08:05.318Z,0.00
2019-04-06T03:09:05.309Z,0.00
2019-04-06T03:10:05.308Z,0.00
2019-04-06T03:11:05.323Z,0.00
2019-04-06T03:12:05.281Z,0.00
2019-04-06T03:13:05.307Z,0.00
2019-04-06T03:14:05.361Z,0.00
2019-04-06T03:15:05.257Z,0.00
2019-04-06T03:16:05.247Z,0.00
2019-04-06T03:17:05.249Z,0.00
2019-04-06T03:18:05.229Z,0.00
2019-04-06T03:19:05.319Z,0.00
2019-04-06T03:20:05.206Z,0.00
2019-04-06T03:21:05.205Z,0.00
2019-04-06T03:22:05.355Z,0.00
2019-04-06T03:23:05.196Z,0.00
2019-04-06T03:24:05.183Z,0.00
2019-04-06T03:25:05.169Z,0.00
2019-04-06T03:26:05.156Z,0.00
2019-04-06T03:27:05.149Z,0.00
2019-04-06T03:28:05.155Z,0.00
2019-04-06T03:29:05.131Z,0.00
2019-04-06T03:30:05.146Z,0.00
2019-04-06T03:31:05.117Z,0.00
2019-04-06T03:32:05.110Z,0.00
2019-04-06T03:33:05.098Z,0.00
2019-04-06T03:34:05.095Z,0.00
2019-04-06T03:35:05.107Z,0.00
2019-04-06T03:36:05.536Z,0.00
2019-04-06T03:37:05.078Z,0.00
2019-04-06T03:38:05.081Z,0.00
2019-04-06T03:39:05.042Z,0.00
2019-04-06T03:40:05.036Z,0.00
2019-04-06T03:41:05.023Z,0.00
2019-04-06T03:42:05.013Z,0.00
2019-04-06T03:43:05.013Z,0.00
2019-04-06T03:44:05.298Z,0.00
2019-04-06T03:45:04.983Z,0.00
2019-04-06T03:46:04.980Z,0.00
2019-04-06T03:47:04.974Z,0.00
2019-04-06T03:48:04.968Z,0.00
2019-04-06T03:49:04.947Z,0.00
2019-04-06T03:50:04.936Z,0.00
2019-04-06T03:51:04.930Z,0.00
2019-04-06T03:52:05.090Z,0.00
2019-04-06T03:53:04.908Z,0.00
2019-04-06T03:54:04.906Z,0.00
2019-04-06T03:55:04.903Z,0.00
2019-04-06T03:56:04.881Z,0.00
2019-04-06T03:57:14.466Z,0.00
2019-04-06T03:58:04.866Z,0.00
2019-04-06T03:59:04.861Z,0.00
2019-04-06T04:00:04.849Z,0.00
2019-04-06T04:01:04.837Z,0.00
2019-04-06T04:02:04.827Z,0.00
2019-04-06T04:03:04.816Z,0.00
2019-04-06T04:04:04.809Z,0.00
2019-04-06T04:05:04.803Z,0.00
2019-04-06T04:06:04.875Z,0.00
2019-04-06T04:07:04.786Z,0.00
2019-04-06T04:08:04.775Z,0.00
2019-04-06T04:09:04.762Z,0.00
2019-04-06T04:10:04.972Z,0.00
2019-04-06T04:11:04.746Z,0.00
2019-04-06T04:12:04.736Z,0.00
2019-04-06T04:13:04.746Z,0.00
2019-04-06T04:14:04.720Z,0.00
2019-04-06T04:15:04.977Z,0.00
2019-04-06T04:16:04.699Z,0.00
2019-04-06T04:17:04.689Z,0.00
2019-04-06T04:18:04.778Z,0.00
2019-04-06T04:19:04.675Z,0.00
2019-04-06T04:20:04.664Z,0.00
2019-04-06T04:21:04.656Z,0.00
2019-04-06T04:22:04.643Z,0.00
2019-04-06T04:23:04.629Z,0.00
2019-04-06T04:24:04.628Z,0.00
2019-04-06T04:25:04.778Z,0.00
2019-04-06T04:26:04.607Z,0.00
2019-04-06T04:27:04.600Z,0.00
2019-04-06T04:28:04.588Z,0.00
2019-04-06T04:29:04.589Z,0.00
2019-04-06T04:30:04.580Z,0.00
2019-04-06T04:31:04.560Z,0.00
2019-04-06T04:32:04.550Z,4.00
2019-04-06T04:33:04.537Z,4.00
2019-04-06T04:34:04.533Z,0.00
2019-04-06T04:35:04.519Z,4.00
2019-04-06T04:36:04.682Z,4.00
2019-04-06T04:37:04.500Z,4.00
2019-04-06T04:38:04.494Z,4.00
2019-04-06T04:39:04.784Z,8.00
2019-04-06T04:40:04.483Z,8.00
2019-04-06T04:41:04.465Z,8.00
2019-04-06T04:42:04.529Z,12.00
2019-04-06T04:43:05.090Z,12.00
2019-04-06T04:44:04.436Z,12.00
2019-04-06T04:45:04.429Z,20.00
2019-04-06T04:46:04.413Z,24.00
2019-04-06T04:47:04.414Z,24.00
2019-04-06T04:48:04.397Z,28.00
2019-04-06T04:49:04.391Z,28.00
2019-04-06T04:50:04.378Z,36.00
2019-04-06T04:51:04.527Z,40.00
2019-04-06T04:52:04.360Z,44.00
2019-04-06T04:53:04.350Z,48.00
2019-04-06T04:54:04.340Z,56.00
2019-04-06T04:55:04.331Z,60.00
2019-04-06T04:56:04.320Z,68.00
2019-04-06T04:57:04.309Z,76.00
2019-04-06T04:58:04.309Z,80.00
2019-04-06T04:59:04.293Z,88.00
2019-04-06T05:00:04.279Z,92.00
2019-04-06T05:01:04.266Z,100.00
2019-04-06T05:02:04.266Z,108.00
2019-04-06T05:03:04.556Z,116.00
2019-04-06T05:04:04.250Z,128.00
2019-04-06T05:05:04.241Z,140.00
2019-04-06T05:06:04.222Z,160.00
2019-04-06T05:07:04.312Z,184.00
2019-04-06T05:08:04.205Z,216.00
2019-04-06T05:09:04.193Z,244.00
2019-04-06T05:10:04.194Z,248.00
2019-04-06T05:11:04.227Z,252.00
2019-04-06T05:12:04.172Z,260.00
2019-04-06T05:13:04.165Z,284.00
2019-04-06T05:14:04.155Z,312.00
2019-04-06T05:15:04.139Z,340.00
2019-04-06T05:16:04.140Z,348.00
2019-04-06T05:17:04.128Z,348.00
2019-04-06T05:18:04.114Z,356.00
2019-04-06T05:19:04.119Z,364.00
2019-04-06T05:20:04.098Z,380.00
2019-04-06T05:21:04.093Z,408.00
2019-04-06T05:22:04.081Z,420.00
2019-04-06T05:23:04.096Z,432.00
2019-04-06T05:24:04.180Z,452.00
2019-04-06T05:25:04.057Z,488.00
2019-04-06T05:26:04.240Z,532.00
2019-04-06T05:27:04.033Z,572.00
2019-04-06T05:28:04.032Z,596.00
2019-04-06T05:29:04.014Z,600.00
2019-04-06T05:30:04.586Z,600.00
2019-04-06T05:31:04.000Z,612.00
2019-04-06T05:32:03.994Z,636.00
2019-04-06T05:33:03.977Z,644.00
2019-04-06T05:34:04.059Z,660.00
2019-04-06T05:35:03.955Z,668.00
2019-04-06T05:36:04.073Z,656.00
2019-04-06T05:37:03.951Z,644.00
2019-04-06T05:38:03.932Z,644.00
2019-04-06T05:39:04.068Z,652.00
2019-04-06T05:40:03.919Z,668.00
2019-04-06T05:41:04.087Z,692.00
2019-04-06T05:42:03.903Z,732.00
2019-04-06T05:43:03.894Z,764.00
2019-04-06T05:44:03.927Z,796.00
2019-04-06T05:45:03.873Z,852.00
2019-04-06T05:46:03.860Z,928.00
2019-04-06T05:47:03.859Z,984.00
2019-04-06T05:48:03.851Z,1012.00
2019-04-06T05:49:03.843Z,1028.00
2019-04-06T05:50:03.833Z,1036.00
2019-04-06T05:51:03.848Z,1064.00
2019-04-06T05:52:03.843Z,1128.00
2019-04-06T05:53:03.805Z,1200.00
2019-04-06T05:54:03.802Z,1228.00
2019-04-06T05:55:03.851Z,1248.00
2019-04-06T05:56:03.782Z,1268.00
2019-04-06T05:57:03.885Z,1292.00
2019-04-06T05:58:04.707Z,1280.00
2019-04-06T05:59:03.756Z,1236.00
2019-04-06T06:00:03.746Z,1184.00
2019-04-06T06:01:04.333Z,1184.00
2019-04-06T06:02:03.771Z,1196.00
2019-04-06T06:03:03.724Z,1216.00
2019-04-06T06:04:03.717Z,1248.00
2019-04-06T06:05:03.706Z,1284.00
2019-04-06T06:06:03.867Z,1336.00
2019-04-06T06:07:03.692Z,1388.00
2019-04-06T06:08:03.688Z,1436.00
2019-04-06T06:09:03.677Z,1536.00
2019-04-06T06:10:03.820Z,1640.00
2019-04-06T06:11:03.670Z,1724.00
2019-04-06T06:12:03.649Z,1804.00
2019-04-06T06:13:03.639Z,1912.00
2019-04-06T06:14:03.636Z,2032.00
2019-04-06T06:15:03.631Z,2124.00
2019-04-06T06:16:03.766Z,2184.00
2019-04-06T06:17:03.612Z,2204.00
2019-04-06T06:18:03.594Z,2128.00
2019-04-06T06:19:03.592Z,2048.00
2019-04-06T06:20:03.643Z,2092.00
2019-04-06T06:21:03.579Z,2160.00
2019-04-06T06:22:03.569Z,2176.00
2019-04-06T06:23:03.603Z,2176.00
2019-04-06T06:24:03.552Z,2164.00
2019-04-06T06:25:03.816Z,2136.00
2019-04-06T06:26:03.572Z,2096.00
2019-04-06T06:27:03.530Z,2100.00
2019-04-06T06:28:13.843Z,2216.00
2019-04-06T06:29:03.528Z,2360.00
2019-04-06T06:30:03.505Z,2420.00
2019-04-06T06:31:03.502Z,2516.00
2019-04-06T06:32:03.495Z,2856.00
2019-04-06T06:33:03.520Z,2844.00
2019-04-06T06:34:03.479Z,2920.00
2019-04-06T06:35:03.471Z,2804.00
2019-04-06T06:36:03.462Z,2736.00
2019-04-06T06:37:03.453Z,2660.00
2019-04-06T06:38:03.489Z,2684.00
2019-04-06T06:39:03.447Z,2704.00
2019-04-06T06:40:03.444Z,2780.00
2019-04-06T06:41:03.425Z,2968.00
2019-04-06T06:42:03.418Z,3128.00
2019-04-06T06:43:03.450Z,3220.00
2019-04-06T06:44:03.403Z,3336.00
2019-04-06T06:45:03.396Z,3596.00
2019-04-06T06:46:03.487Z,3812.00
2019-04-06T06:47:03.387Z,3836.00
2019-04-06T06:48:03.388Z,3756.00
2019-04-06T06:49:03.373Z,3648.00
2019-04-06T06:50:03.361Z,3528.00
2019-04-06T06:51:03.355Z,3556.00
2019-04-06T06:52:03.363Z,3736.00
2019-04-06T06:53:03.606Z,3836.00
2019-04-06T06:54:03.401Z,3776.00
2019-04-06T06:55:03.333Z,3704.00
2019-04-06T06:56:03.387Z,3740.00
2019-04-06T06:57:03.315Z,3720.00
2019-04-06T06:58:03.309Z,3688.00
2019-04-06T06:59:03.305Z,3744.00
2019-04-06T07:00:03.308Z,3728.00
2019-04-06T07:01:03.624Z,3692.00
2019-04-06T07:02:03.275Z,3732.00
2019-04-06T07:03:03.277Z,3712.00
2019-04-06T07:04:03.348Z,3584.00
2019-04-06T07:05:03.265Z,3556.00
2019-04-06T07:06:03.330Z,3620.00
2019-04-06T07:07:03.251Z,3628.00
2019-04-06T07:08:03.253Z,3636.00
2019-04-06T07:09:03.241Z,3720.00
2019-04-06T07:10:05.671Z,3796.00
2019-04-06T07:11:03.230Z,3912.00
2019-04-06T07:12:03.224Z,4048.00
2019-04-06T07:13:03.220Z,4096.00
2019-04-06T07:14:03.229Z,4104.00
2019-04-06T07:15:03.244Z,4104.00
2019-04-06T07:16:03.206Z,4064.00
2019-04-06T07:17:03.210Z,3968.00
2019-04-06T07:18:03.187Z,3912.00
2019-04-06T07:19:03.183Z,3908.00
2019-04-06T07:20:03.174Z,3820.00
2019-04-06T07:21:03.181Z,3660.00
2019-04-06T07:22:03.328Z,3584.00
2019-04-06T07:23:03.171Z,3524.00
2019-04-06T07:24:03.153Z,3476.00
2019-04-06T07:25:03.147Z,3532.00
2019-04-06T07:26:03.142Z,3644.00
2019-04-06T07:27:04.127Z,3740.00
2019-04-06T07:28:03.136Z,3820.00
2019-04-06T07:29:03.300Z,3976.00
2019-04-06T07:30:03.150Z,4216.00
2019-04-06T07:31:03.115Z,4372.00
2019-04-06T07:32:03.107Z,4516.00
2019-04-06T07:33:03.101Z,4468.00
2019-04-06T07:34:03.101Z,4116.00
2019-04-06T07:35:03.108Z,4000.00
2019-04-06T07:36:03.100Z,3992.00
2019-04-06T07:37:03.076Z,3972.00
2019-04-06T07:38:03.072Z,4012.00
2019-04-06T07:39:03.688Z,4272.00
2019-04-06T07:40:03.067Z,4644.00
2019-04-06T07:41:03.061Z,4992.00
2019-04-06T07:42:03.095Z,5244.00
2019-04-06T07:43:03.149Z,5372.00
2019-04-06T07:44:05.529Z,5376.00
2019-04-06T07:45:03.348Z,5364.00
2019-04-06T07:46:03.029Z,5384.00
2019-04-06T07:47:03.024Z,5476.00
2019-04-06T07:48:03.273Z,5728.00
2019-04-06T07:49:08.327Z,5492.00
2019-04-06T07:50:03.645Z,5256.00
2019-04-06T07:51:03.009Z,4692.00
2019-04-06T07:52:03.002Z,4480.00
2019-04-06T07:53:02.998Z,4472.00
2019-04-06T07:54:02.990Z,4340.00
2019-04-06T07:55:02.997Z,4356.00
2019-04-06T07:56:02.989Z,4532.00
2019-04-06T07:57:02.982Z,4744.00
2019-04-06T07:58:02.974Z,4668.00
2019-04-06T07:59:02.971Z,4640.00
2019-04-06T08:00:02.970Z,4732.00
2019-04-06T08:01:02.960Z,4660.00
2019-04-06T08:02:02.956Z,4492.00
2019-04-06T08:03:02.958Z,4728.00
2019-04-06T08:04:02.949Z,4916.00
2019-04-06T08:05:02.948Z,4976.00
2019-04-06T08:06:02.949Z,5040.00
2019-04-06T08:07:02.942Z,4768.00
2019-04-06T08:08:02.936Z,4392.00
2019-04-06T08:09:02.929Z,4512.00
2019-04-06T08:10:02.932Z,4808.00
2019-04-06T08:11:02.924Z,4904.00
2019-04-06T08:12:02.918Z,4672.00
2019-04-06T08:13:03.652Z,4488.00
2019-04-06T08:14:03.876Z,4592.00
2019-04-06T08:15:02.913Z,4236.00
2019-04-06T08:16:03.313Z,3936.00
2019-04-06T08:17:02.974Z,4180.00
2019-04-06T08:18:02.909Z,4188.00
2019-04-06T08:19:03.247Z,4064.00
2019-04-06T08:20:02.907Z,3976.00
2019-04-06T08:21:02.886Z,3940.00
2019-04-06T08:22:02.894Z,3956.00
2019-04-06T08:23:02.882Z,4084.00
2019-04-06T08:24:03.150Z,4048.00
2019-04-06T08:25:02.882Z,4016.00
2019-04-06T08:26:03.022Z,3988.00
2019-04-06T08:27:02.868Z,3956.00
2019-04-06T08:28:02.868Z,3940.00
2019-04-06T08:29:02.899Z,3876.00
2019-04-06T08:30:02.856Z,3828.00
2019-04-06T08:31:02.865Z,3852.00
2019-04-06T08:32:02.852Z,3880.00
2019-04-06T08:33:03.081Z,3928.00
2019-04-06T08:34:02.848Z,3912.00
2019-04-06T08:35:02.847Z,3688.00
2019-04-06T08:36:02.842Z,3800.00
2019-04-06T08:37:02.845Z,3764.00
2019-04-06T08:38:02.844Z,3712.00
2019-04-06T08:39:02.829Z,3712.00
2019-04-06T08:40:02.827Z,3652.00
2019-04-06T08:41:02.869Z,3584.00
2019-04-06T08:42:03.042Z,3640.00
2019-04-06T08:43:02.820Z,3680.00
2019-04-06T08:44:06.894Z,3656.00
2019-04-06T08:45:02.810Z,3620.00
2019-04-06T08:46:02.834Z,3580.00
2019-04-06T08:47:02.807Z,3632.00
2019-04-06T08:48:04.672Z,3516.00
2019-04-06T08:49:04.670Z,3464.00
2019-04-06T08:50:02.794Z,3456.00
2019-04-06T08:51:04.810Z,3504.00
2019-04-06T08:52:02.799Z,3608.00
2019-04-06T08:53:02.787Z,3784.00
2019-04-06T08:54:02.780Z,3984.00
2019-04-06T08:55:02.785Z,4148.00
2019-04-06T08:56:02.769Z,4404.00
2019-04-06T08:57:04.676Z,4624.00
2019-04-06T08:58:02.769Z,4428.00
2019-04-06T08:59:11.286Z,4056.00
2019-04-06T09:00:02.763Z,3912.00
2019-04-06T09:01:02.758Z,3772.00
2019-04-06T09:02:02.760Z,3572.00
2019-04-06T09:03:02.753Z,4120.00
2019-04-06T09:04:02.754Z,4580.00
2019-04-06T09:05:02.786Z,4944.00
2019-04-06T09:06:02.746Z,5168.00
2019-04-06T09:07:02.743Z,5144.00
2019-04-06T09:08:04.678Z,4844.00
2019-04-06T09:09:02.751Z,4044.00
2019-04-06T09:10:02.760Z,3848.00
2019-04-06T09:11:02.735Z,4260.00
2019-04-06T09:12:02.981Z,4372.00
2019-04-06T09:13:02.724Z,4024.00
2019-04-06T09:14:02.719Z,3908.00
2019-04-06T09:15:02.717Z,4264.00
2019-04-06T09:16:03.993Z,5016.00
2019-04-06T09:17:02.714Z,4680.00
2019-04-06T09:18:02.708Z,4104.00
2019-04-06T09:19:02.716Z,3800.00
2019-04-06T09:20:02.702Z,3608.00
2019-04-06T09:21:03.187Z,3748.00
2019-04-06T09:22:04.959Z,3880.00
2019-04-06T09:23:03.689Z,3692.00
2019-04-06T09:24:02.720Z,3672.00
2019-04-06T09:25:02.697Z,3972.00
2019-04-06T09:26:02.793Z,4120.00
2019-04-06T09:27:02.957Z,4020.00
2019-04-06T09:28:02.682Z,3792.00
2019-04-06T09:29:02.726Z,3860.00
2019-04-06T09:30:02.722Z,4032.00
2019-04-06T09:31:02.679Z,4168.00
2019-04-06T09:32:02.668Z,3900.00
2019-04-06T09:33:02.664Z,3872.00
2019-04-06T09:34:02.670Z,4040.00
2019-04-06T09:35:02.706Z,4120.00
2019-04-06T09:36:03.664Z,4292.00
2019-04-06T09:37:04.193Z,4964.00
2019-04-06T09:38:04.197Z,4980.00
2019-04-06T09:39:02.773Z,5140.00
2019-04-06T09:40:02.650Z,5104.00
2019-04-06T09:41:04.248Z,4680.00
2019-04-06T09:42:06.198Z,4832.00
2019-04-06T09:43:04.393Z,4768.00
2019-04-06T09:44:02.661Z,4632.00
2019-04-06T09:45:02.633Z,4580.00
2019-04-06T09:46:04.205Z,5004.00
2019-04-06T09:47:02.629Z,5108.00
2019-04-06T09:48:02.630Z,5000.00
2019-04-06T09:49:02.622Z,5260.00
2019-04-06T09:50:02.618Z,5108.00
2019-04-06T09:51:04.208Z,4248.00
2019-04-06T09:52:04.202Z,3464.00
2019-04-06T09:53:04.400Z,3120.00
2019-04-06T09:54:06.648Z,3180.00
2019-04-06T09:55:02.610Z,3848.00
2019-04-06T09:56:02.764Z,4640.00
2019-04-06T09:57:02.603Z,4612.00
2019-04-06T09:58:02.598Z,4644.00
2019-04-06T09:59:02.592Z,4832.00
2019-04-06T10:00:02.604Z,5324.00
2019-04-06T10:01:02.590Z,5512.00
2019-04-06T10:02:02.588Z,5564.00
2019-04-06T10:03:02.586Z,5188.00
2019-04-06T10:04:02.588Z,4572.00
2019-04-06T10:05:02.579Z,3948.00
2019-04-06T10:06:04.214Z,3396.00
2019-04-06T10:07:02.575Z,3248.00
2019-04-06T10:08:02.576Z,3192.00
2019-04-06T10:09:03.566Z,3160.00
2019-04-06T10:10:04.204Z,3320.00
2019-04-06T10:11:02.583Z,3372.00
2019-04-06T10:12:04.235Z,3080.00
2019-04-06T10:13:02.558Z,3304.00
2019-04-06T10:14:02.560Z,3392.00
2019-04-06T10:15:02.552Z,3292.00
2019-04-06T10:16:02.562Z,3740.00
2019-04-06T10:17:02.629Z,4552.00
2019-04-06T10:18:02.843Z,4432.00
2019-04-06T10:19:02.543Z,3460.00
2019-04-06T10:20:02.544Z,3064.00
2019-04-06T10:21:02.540Z,3012.00
2019-04-06T10:22:02.535Z,2780.00
2019-04-06T10:23:04.487Z,3068.00
2019-04-06T10:24:02.534Z,3456.00
2019-04-06T10:25:02.538Z,3484.00
2019-04-06T10:26:04.229Z,3052.00
2019-04-06T10:27:04.227Z,2972.00
2019-04-06T10:28:02.662Z,2828.00
2019-04-06T10:29:02.520Z,2740.00
2019-04-06T10:30:02.516Z,2708.00
2019-04-06T10:31:02.524Z,2708.00
2019-04-06T10:32:02.512Z,2708.00
2019-04-06T10:33:02.505Z,2692.00
2019-04-06T10:34:04.326Z,2680.00
2019-04-06T10:35:02.511Z,2664.00
2019-04-06T10:36:02.498Z,2648.00
2019-04-06T10:37:02.493Z,2636.00
2019-04-06T10:38:02.492Z,2636.00
2019-04-06T10:39:02.494Z,2668.00
2019-04-06T10:40:04.233Z,2680.00
2019-04-06T10:41:04.232Z,2704.00
2019-04-06T10:42:04.224Z,2736.00
2019-04-06T10:43:04.235Z,2736.00
2019-04-06T10:44:02.532Z,2756.00
2019-04-06T10:45:02.627Z,2764.00
2019-04-06T10:46:02.467Z,2776.00
2019-04-06T10:47:02.462Z,2792.00
2019-04-06T10:48:02.466Z,2792.00
2019-04-06T10:49:02.457Z,2808.00
2019-04-06T10:50:04.225Z,2820.00
2019-04-06T10:51:04.237Z,2824.00
2019-04-06T10:52:02.448Z,2808.00
2019-04-06T10:53:02.444Z,2784.00
2019-04-06T10:54:04.232Z,2772.00
2019-04-06T10:55:02.776Z,2764.00
2019-04-06T10:56:02.609Z,2744.00
2019-04-06T10:57:04.241Z,2740.00
2019-04-06T10:58:02.536Z,2724.00
2019-04-06T10:59:03.414Z,2712.00
2019-04-06T11:00:03.375Z,2724.00
2019-04-06T11:01:04.246Z,2744.00
2019-04-06T11:02:02.522Z,2764.00
2019-04-06T11:03:04.244Z,2776.00
2019-04-06T11:04:04.388Z,2772.00
2019-04-06T11:05:02.400Z,2768.00
2019-04-06T11:06:02.400Z,2756.00
2019-04-06T11:07:02.399Z,2760.00
2019-04-06T11:08:02.388Z,2732.00
2019-04-06T11:09:02.388Z,2704.00
2019-04-06T11:10:04.339Z,2672.00
2019-04-06T11:11:04.503Z,2664.00
2019-04-06T11:12:02.384Z,2636.00
2019-04-06T11:13:02.376Z,2572.00
2019-04-06T11:14:02.377Z,2572.00
2019-04-06T11:15:02.429Z,2568.00
2019-04-06T11:16:02.666Z,2580.00
2019-04-06T11:17:02.363Z,2604.00
2019-04-06T11:18:02.378Z,2632.00
2019-04-06T11:19:06.254Z,2580.00
2019-04-06T11:20:02.353Z,2540.00
2019-04-06T11:21:02.346Z,2548.00
2019-04-06T11:22:02.512Z,2564.00
2019-04-06T11:23:02.341Z,2568.00
2019-04-06T11:24:02.608Z,2500.00
2019-04-06T11:25:02.337Z,2468.00
2019-04-06T11:26:02.330Z,2428.00
2019-04-06T11:27:02.385Z,2420.00
2019-04-06T11:28:03.978Z,2416.00
2019-04-06T11:29:04.255Z,2396.00
2019-04-06T11:30:12.434Z,2396.00
2019-04-06T11:31:03.322Z,2344.00
2019-04-06T11:32:02.540Z,2380.00
2019-04-06T11:33:06.264Z,2400.00
2019-04-06T11:34:02.301Z,2412.00
2019-04-06T11:35:04.260Z,2404.00
2019-04-06T11:36:04.398Z,2400.00
2019-04-06T11:37:02.289Z,2412.00
2019-04-06T11:38:02.299Z,2400.00
2019-04-06T11:39:02.484Z,2420.00
2019-04-06T11:40:02.286Z,2416.00
2019-04-06T11:41:02.352Z,2448.00
2019-04-06T11:42:02.352Z,2452.00
2019-04-06T11:43:03.266Z,2476.00
2019-04-06T11:44:02.270Z,2500.00
2019-04-06T11:45:02.267Z,2500.00
2019-04-06T11:46:02.573Z,2480.00
2019-04-06T11:47:02.464Z,2464.00
2019-04-06T11:48:02.260Z,2464.00
2019-04-06T11:49:02.252Z,2464.00
2019-04-06T11:50:02.255Z,2464.00
2019-04-06T11:51:02.255Z,2500.00
2019-04-06T11:52:02.252Z,2564.00
2019-04-06T11:53:02.254Z,2592.00
2019-04-06T11:54:02.311Z,2596.00
2019-04-06T11:55:02.558Z,2608.00
2019-04-06T11:56:02.238Z,2604.00
2019-04-06T11:57:02.234Z,2676.00
2019-04-06T11:58:02.228Z,2756.00
2019-04-06T11:59:02.572Z,2764.00
2019-04-06T12:00:02.450Z,2932.00
2019-04-06T12:01:02.529Z,3084.00
2019-04-06T12:02:02.211Z,3136.00
2019-04-06T12:03:02.211Z,2976.00
2019-04-06T12:04:02.298Z,2796.00
2019-04-06T12:05:02.236Z,2688.00
2019-04-06T12:06:02.353Z,2788.00
2019-04-06T12:07:02.198Z,2992.00
2019-04-06T12:08:02.195Z,3036.00
2019-04-06T12:09:02.221Z,3052.00
2019-04-06T12:10:02.548Z,3168.00
2019-04-06T12:11:02.187Z,3228.00
2019-04-06T12:12:03.980Z,3140.00
2019-04-06T12:13:02.301Z,2920.00
2019-04-06T12:14:02.180Z,2796.00
2019-04-06T12:15:02.233Z,2836.00
2019-04-06T12:16:02.235Z,2872.00
2019-04-06T12:17:02.301Z,3048.00
2019-04-06T12:18:02.355Z,3516.00
2019-04-06T12:19:03.785Z,3524.00
2019-04-06T12:20:04.179Z,3592.00
2019-04-06T12:21:03.840Z,3376.00
2019-04-06T12:22:02.167Z,3000.00
2019-04-06T12:23:02.153Z,2860.00
2019-04-06T12:24:03.790Z,2796.00
2019-04-06T12:25:03.793Z,2644.00
2019-04-06T12:26:02.147Z,2648.00
2019-04-06T12:27:02.142Z,2632.00
2019-04-06T12:28:02.152Z,2672.00
2019-04-06T12:29:03.792Z,2716.00
2019-04-06T12:30:02.169Z,2768.00
2019-04-06T12:31:02.134Z,2744.00
2019-04-06T12:32:02.138Z,2696.00
2019-04-06T12:33:02.133Z,2668.00
2019-04-06T12:34:02.483Z,2680.00